createdAt,value
2022-10-25T00:01:05.822Z,11.97
2022-10-25T00:03:59.683Z,11.98
2022-10-25T00:06:53.719Z,12.01
2022-10-25T00:09:40.719Z,11.99
2022-10-25T00:12:14.797Z,11.99
2022-10-25T00:15:01.722Z,11.99
2022-10-25T00:17:34.798Z,12.01
2022-10-25T00:20:21.716Z,12.04
2022-10-25T00:23:01.706Z,12.04
2022-10-25T00:25:48.712Z,12.03
2022-10-25T00:28:28.719Z,12.02
2022-10-25T00:31:23.752Z,12.01
2022-10-25T00:34:03.722Z,12.01
2022-10-25T00:36:50.727Z,12.01
2022-10-25T00:39:23.815Z,12.00
2022-10-25T00:42:17.707Z,11.97
2022-10-25T00:45:14.730Z,11.96
2022-10-25T00:48:16.727Z,11.95
2022-10-25T00:51:03.747Z,11.94
2022-10-25T00:53:48.715Z,11.94
2022-10-25T00:56:47.762Z,11.93
2022-10-25T00:59:35.737Z,11.95
2022-10-25T01:02:15.861Z,11.95
2022-10-25T01:05:09.746Z,11.95
2022-10-25T01:07:56.739Z,11.95
2022-10-25T01:10:36.802Z,11.93
2022-10-25T01:13:30.738Z,11.93
2022-10-25T01:16:37.876Z,11.93
2022-10-25T01:19:31.732Z,11.91
2022-10-25T01:22:20.801Z,11.89
2022-10-25T01:25:15.752Z,11.90
2022-10-25T01:28:11.738Z,11.89
2022-10-25T01:31:01.860Z,11.88
2022-10-25T01:34:03.756Z,11.89
2022-10-25T01:36:48.824Z,11.91
2022-10-25T01:39:50.738Z,11.90
2022-10-25T01:42:43.769Z,11.89
2022-10-25T01:46:27.750Z,11.89
2022-10-25T01:49:21.757Z,11.87
2022-10-25T01:51:54.835Z,11.87
2022-10-25T01:54:41.834Z,11.88
2022-10-25T01:57:46.108Z,11.87
2022-10-25T02:00:32.886Z,11.89
2022-10-25T02:03:30.803Z,11.87
2022-10-25T02:06:53.757Z,11.89
2022-10-25T02:09:58.851Z,11.89
2022-10-25T02:13:17.825Z,11.91
2022-10-25T02:16:21.763Z,11.90
2022-10-25T02:19:12.804Z,11.90
2022-10-25T02:21:46.897Z,11.88
2022-10-25T02:24:36.805Z,11.86
2022-10-25T02:27:12.913Z,11.88
2022-10-25T02:30:00.806Z,11.88
2022-10-25T02:32:33.870Z,11.88
2022-10-25T02:35:22.841Z,11.89
2022-10-25T02:37:55.873Z,11.90
2022-10-25T02:40:42.805Z,11.91
2022-10-25T02:43:15.875Z,11.92
2022-10-25T02:46:02.814Z,11.91
2022-10-25T02:48:35.946Z,11.92
2022-10-25T02:51:23.826Z,11.93
2022-10-25T02:53:56.944Z,11.93
2022-10-25T02:56:44.807Z,11.90
2022-10-25T02:59:25.769Z,11.91
2022-10-25T03:02:19.825Z,11.89
2022-10-25T03:05:06.808Z,11.89
2022-10-25T03:07:46.818Z,11.90
2022-10-25T03:10:40.803Z,11.90
2022-10-25T03:13:27.822Z,11.90
2022-10-25T03:16:07.840Z,11.89
2022-10-25T03:19:01.830Z,11.88
2022-10-25T03:21:48.810Z,11.86
2022-10-25T03:24:21.874Z,11.86
2022-10-25T03:27:08.817Z,11.85
2022-10-25T03:29:41.872Z,11.84
2022-10-25T03:32:28.822Z,11.84
2022-10-25T03:35:01.877Z,11.83
2022-10-25T03:37:49.062Z,11.83
2022-10-25T03:40:22.935Z,11.82
2022-10-25T03:43:11.011Z,11.81
2022-10-25T03:45:51.858Z,11.81
2022-10-25T03:48:45.856Z,11.81
2022-10-25T03:51:32.794Z,11.79
2022-10-25T03:54:05.959Z,11.79
2022-10-25T03:56:52.827Z,11.78
2022-10-25T03:59:25.953Z,11.79
2022-10-25T04:02:12.899Z,11.78
2022-10-25T04:04:45.867Z,11.78
2022-10-25T04:07:32.827Z,11.78
2022-10-25T04:10:05.949Z,11.77
2022-10-25T04:12:54.724Z,11.77
2022-10-25T04:15:36.820Z,11.76
2022-10-25T04:18:30.887Z,11.74
2022-10-25T04:21:19.857Z,11.74
2022-10-25T04:24:03.432Z,11.73
2022-10-25T04:26:57.863Z,11.70
2022-10-25T04:29:51.860Z,11.69
2022-10-25T04:32:38.881Z,11.67
2022-10-25T04:35:12.791Z,11.66
2022-10-25T04:38:03.861Z,11.65
2022-10-25T04:40:36.925Z,11.65
2022-10-25T04:43:32.832Z,11.64
2022-10-25T04:46:20.887Z,11.62
2022-10-25T04:48:53.993Z,11.62
2022-10-25T04:51:40.910Z,11.63
2022-10-25T04:54:14.927Z,11.60
2022-10-25T04:57:03.870Z,11.58
2022-10-25T04:59:40.040Z,11.58
2022-10-25T05:02:26.938Z,11.57
2022-10-25T05:04:59.990Z,11.56
2022-10-25T05:07:46.880Z,11.55
2022-10-25T05:10:20.056Z,11.55
2022-10-25T05:13:06.881Z,11.55
2022-10-25T05:15:39.957Z,11.55
2022-10-25T05:18:26.890Z,11.54
2022-10-25T05:21:07.954Z,11.53
2022-10-25T05:23:58.962Z,11.52
2022-10-25T05:26:41.860Z,11.53
2022-10-25T05:29:35.868Z,11.49
2022-10-25T05:32:22.883Z,11.50
2022-10-25T05:35:02.876Z,11.48
2022-10-25T05:37:49.879Z,11.47
2022-10-25T05:40:29.861Z,11.46
2022-10-25T05:43:16.943Z,11.45
2022-10-25T05:45:49.999Z,11.46
2022-10-25T05:48:36.885Z,11.47
2022-10-25T05:51:37.876Z,11.47
2022-10-25T05:54:31.861Z,11.45
2022-10-25T05:57:18.935Z,11.44
2022-10-25T05:59:51.956Z,11.44
2022-10-25T06:02:38.925Z,11.45
2022-10-25T06:05:21.588Z,11.48
2022-10-25T06:08:14.883Z,11.50
2022-10-25T06:11:08.930Z,11.52
2022-10-25T06:13:55.870Z,11.54
2022-10-25T06:16:35.894Z,11.54
2022-10-25T06:19:29.881Z,11.56
2022-10-25T06:22:23.959Z,11.57
2022-10-25T06:25:19.894Z,11.59
2022-10-25T06:28:06.932Z,11.59
2022-10-25T06:30:42.311Z,11.61
2022-10-25T06:33:28.924Z,11.63
2022-10-25T06:36:07.540Z,11.64
2022-10-25T06:38:54.932Z,11.65
2022-10-25T06:41:40.933Z,11.68
2022-10-25T06:44:34.931Z,11.71
2022-10-25T06:47:21.891Z,11.73
2022-10-25T06:50:03.087Z,11.77
2022-10-25T06:52:56.930Z,11.78
2022-10-25T06:55:52.938Z,11.81
2022-10-25T06:58:40.938Z,11.83
2022-10-25T07:01:22.219Z,11.86
2022-10-25T07:04:09.959Z,11.87
2022-10-25T07:06:52.786Z,11.89
2022-10-25T07:09:48.942Z,11.93
2022-10-25T07:12:44.940Z,11.96
2022-10-25T07:15:31.957Z,12.00
2022-10-25T07:18:05.008Z,12.05
2022-10-25T07:21:00.038Z,12.08
2022-10-25T07:23:42.002Z,12.12
2022-10-25T07:26:36.960Z,12.14
2022-10-25T07:29:11.018Z,12.16
2022-10-25T07:31:57.963Z,12.22
2022-10-25T07:34:32.102Z,12.28
2022-10-25T07:37:18.937Z,12.33
2022-10-25T07:39:52.055Z,12.38
2022-10-25T07:42:45.963Z,12.42
2022-10-25T07:45:32.937Z,12.48
2022-10-25T07:48:08.067Z,12.50
2022-10-25T07:50:54.977Z,12.52
2022-10-25T07:53:35.956Z,12.58
2022-10-25T07:56:32.981Z,12.62
2022-10-25T07:59:29.955Z,12.66
2022-10-25T08:02:28.007Z,12.71
2022-10-25T08:05:21.997Z,12.75
2022-10-25T08:08:10.184Z,12.81
2022-10-25T08:10:43.060Z,12.85
2022-10-25T08:13:31.992Z,12.88
2022-10-25T08:16:14.017Z,12.92
2022-10-25T08:19:03.543Z,12.97
2022-10-25T08:21:38.050Z,13.02
2022-10-25T08:24:24.984Z,13.07
2022-10-25T08:27:06.008Z,13.09
2022-10-25T08:29:54.005Z,13.11
2022-10-25T08:32:35.002Z,13.15
2022-10-25T08:35:23.966Z,13.19
2022-10-25T08:38:05.964Z,13.21
2022-10-25T08:41:08.007Z,13.23
2022-10-25T08:44:21.971Z,13.26
2022-10-25T08:47:22.997Z,13.27
2022-10-25T08:50:26.999Z,13.26
2022-10-25T08:53:32.999Z,13.26
2022-10-25T08:56:25.717Z,13.28
2022-10-25T08:59:09.075Z,13.31
2022-10-25T09:02:04.121Z,13.32
2022-10-25T09:04:40.049Z,13.35
2022-10-25T09:07:49.439Z,13.36
2022-10-25T09:11:14.013Z,13.39
2022-10-25T09:14:18.989Z,13.47
2022-10-25T09:17:01.100Z,13.52
2022-10-25T09:20:04.028Z,13.62
2022-10-25T09:22:52.051Z,13.69
2022-10-25T09:25:47.999Z,13.76
2022-10-25T09:28:34.984Z,13.83
2022-10-25T09:31:33.002Z,13.92
2022-10-25T09:34:24.011Z,14.00
2022-10-25T09:37:05.083Z,14.06
2022-10-25T09:39:57.999Z,14.12
2022-10-25T09:42:41.061Z,14.18
2022-10-25T09:45:54.010Z,14.25
2022-10-25T09:48:46.570Z,14.32
2022-10-25T09:51:42.040Z,14.41
2022-10-25T09:54:27.901Z,14.46
2022-10-25T09:57:15.021Z,14.49
2022-10-25T09:59:50.090Z,14.52
2022-10-25T10:02:37.171Z,14.56
2022-10-25T10:05:10.077Z,14.58
2022-10-25T10:07:58.016Z,14.58
2022-10-25T10:10:44.334Z,14.60
2022-10-25T10:13:49.008Z,14.63
2022-10-25T10:16:39.365Z,14.68
2022-10-25T10:19:30.338Z,14.71
2022-10-25T10:22:14.219Z,14.73
2022-10-25T10:25:07.006Z,14.77
2022-10-25T10:27:41.074Z,14.79
2022-10-25T10:30:35.040Z,14.81
2022-10-25T10:33:09.635Z,14.80
2022-10-25T10:36:00.048Z,14.76
2022-10-25T10:38:36.103Z,14.75
2022-10-25T10:41:38.333Z,14.69
2022-10-25T10:44:37.013Z,14.61
2022-10-25T10:47:28.051Z,14.53
2022-10-25T10:50:01.091Z,14.45
2022-10-25T10:52:54.029Z,14.37
2022-10-25T10:55:45.023Z,14.33
2022-10-25T10:58:43.033Z,14.29
2022-10-25T11:01:40.201Z,14.29
2022-10-25T11:04:21.858Z,14.31
2022-10-25T11:07:44.797Z,14.35
2022-10-25T11:10:24.161Z,14.40
2022-10-25T11:13:25.011Z,14.43
2022-10-25T11:16:16.198Z,14.50
2022-10-25T11:19:26.052Z,14.58
2022-10-25T11:22:32.865Z,14.69
2022-10-25T11:25:27.045Z,14.76
2022-10-25T11:28:26.047Z,14.81
2022-10-25T11:31:24.064Z,14.87
2022-10-25T11:34:51.060Z,14.92
2022-10-25T11:37:53.041Z,14.99
2022-10-25T11:40:39.135Z,15.03
2022-10-25T11:43:42.053Z,15.04
2022-10-25T11:46:57.036Z,15.09
2022-10-25T11:49:39.138Z,15.14
2022-10-25T11:52:50.138Z,15.18
2022-10-25T11:55:34.175Z,15.21
2022-10-25T11:58:36.072Z,15.23
2022-10-25T12:01:16.167Z,15.27
2022-10-25T12:04:30.695Z,15.30
2022-10-25T12:07:15.062Z,15.32
2022-10-25T12:10:30.073Z,15.32
2022-10-25T12:13:44.108Z,15.34
2022-10-25T12:16:39.075Z,15.37
2022-10-25T12:19:31.048Z,15.39
2022-10-25T12:22:13.150Z,15.39
2022-10-25T12:25:07.050Z,15.38
2022-10-25T12:27:43.139Z,15.40
2022-10-25T12:33:27.071Z,15.41
2022-10-25T12:36:08.179Z,15.38
2022-10-25T12:38:55.070Z,15.36
2022-10-25T12:41:31.141Z,15.39
2022-10-25T12:44:45.065Z,15.39
2022-10-25T12:48:01.084Z,15.33
2022-10-25T12:51:23.079Z,15.28
2022-10-25T12:54:31.094Z,15.19
2022-10-25T12:57:14.208Z,15.07
2022-10-25T13:03:17.013Z,14.81
2022-10-25T13:06:08.118Z,14.69
2022-10-25T13:08:49.103Z,14.58
2022-10-25T13:11:22.156Z,14.56
2022-10-25T13:14:10.096Z,14.50
2022-10-25T13:16:43.198Z,14.44
2022-10-25T13:22:46.816Z,14.28
2022-10-25T13:25:39.125Z,14.29
2022-10-25T13:28:21.180Z,14.29
2022-10-25T13:31:42.130Z,14.26
2022-10-25T13:34:21.162Z,14.19
2022-10-25T13:37:10.141Z,14.14
2022-10-25T13:39:52.181Z,14.08
2022-10-25T13:42:44.318Z,14.04
2022-10-25T13:45:31.343Z,14.01
2022-10-25T13:48:20.163Z,13.98
2022-10-25T13:51:01.246Z,13.98
2022-10-25T13:53:52.112Z,14.01
2022-10-25T13:56:28.175Z,14.04
2022-10-25T13:59:42.121Z,14.07
2022-10-25T14:02:34.121Z,14.10
2022-10-25T14:05:28.121Z,14.12
2022-10-25T14:08:35.118Z,14.10
2022-10-25T14:11:30.123Z,14.09
2022-10-25T14:14:18.199Z,14.08
2022-10-25T14:17:30.140Z,14.07
2022-10-25T14:20:07.242Z,14.03
2022-10-25T14:23:00.120Z,13.98
2022-10-25T14:25:55.246Z,13.95
2022-10-25T14:28:42.120Z,13.91
2022-10-25T14:31:20.327Z,13.87
2022-10-25T14:34:07.154Z,13.81
2022-10-25T14:36:48.159Z,13.78
2022-10-25T14:39:43.139Z,13.75
2022-10-25T14:42:30.121Z,13.69
2022-10-25T14:45:03.216Z,13.64
2022-10-25T14:47:50.143Z,13.58
2022-10-25T14:50:32.222Z,13.53
2022-10-25T14:53:22.147Z,13.48
2022-10-25T14:56:06.263Z,13.45
2022-10-25T14:58:53.163Z,13.40
2022-10-25T15:01:35.263Z,13.33
2022-10-25T15:04:22.165Z,13.26
2022-10-25T15:07:02.142Z,13.21
2022-10-25T15:10:07.164Z,13.15
2022-10-25T15:13:01.159Z,13.10
2022-10-25T15:15:44.166Z,13.05
2022-10-25T15:18:34.166Z,13.01
2022-10-25T15:21:29.158Z,12.99
2022-10-25T15:24:27.156Z,12.95
2022-10-25T15:27:48.145Z,12.90
2022-10-25T15:30:57.163Z,12.88
2022-10-25T15:33:52.144Z,12.87
2022-10-25T15:36:40.160Z,12.87
2022-10-25T15:39:33.038Z,12.84
2022-10-25T15:42:20.187Z,12.78
2022-10-25T15:44:53.251Z,12.72
2022-10-25T15:47:42.149Z,12.66
2022-10-25T15:50:25.917Z,12.60
2022-10-25T15:53:12.180Z,12.56
2022-10-25T15:55:52.218Z,12.54
2022-10-25T15:58:46.181Z,12.51
2022-10-25T16:01:33.339Z,12.47
2022-10-25T16:04:06.258Z,12.42
2022-10-25T16:06:53.179Z,12.42
2022-10-25T16:09:26.256Z,12.39
2022-10-25T16:12:15.177Z,12.39
2022-10-25T16:14:48.264Z,12.36
2022-10-25T16:17:42.176Z,12.38
2022-10-25T16:20:45.201Z,12.36
2022-10-25T16:23:39.195Z,12.33
2022-10-25T16:26:42.187Z,12.30
2022-10-25T16:29:22.363Z,12.27
2022-10-25T16:32:10.189Z,12.23
2022-10-25T16:34:48.322Z,12.20
2022-10-25T16:37:28.202Z,12.18
2022-10-25T16:40:08.216Z,12.14
2022-10-25T16:42:52.207Z,12.12
2022-10-25T16:45:50.187Z,12.10
2022-10-25T16:48:45.204Z,12.10
2022-10-25T16:51:32.206Z,12.10
2022-10-25T16:54:05.286Z,12.10
2022-10-25T16:56:52.210Z,12.09
2022-10-25T16:59:25.275Z,12.08
2022-10-25T17:02:13.290Z,12.07
2022-10-25T17:04:46.336Z,12.04
2022-10-25T17:07:33.260Z,12.01
2022-10-25T17:10:06.291Z,11.96
2022-10-25T17:12:55.220Z,11.91
2022-10-25T17:15:35.202Z,11.88
2022-10-25T17:18:29.201Z,11.87
2022-10-25T17:21:19.209Z,11.85
2022-10-25T17:23:52.290Z,11.87
2022-10-25T17:26:39.234Z,11.86
2022-10-25T17:29:12.306Z,11.84
2022-10-25T17:31:59.219Z,11.80
2022-10-25T17:34:39.228Z,11.74
2022-10-25T17:37:33.221Z,11.68
2022-10-25T17:40:20.221Z,11.64
2022-10-25T17:42:53.527Z,11.61
2022-10-25T17:45:40.252Z,11.58
2022-10-25T17:48:13.341Z,11.54
2022-10-25T17:51:00.216Z,11.50
2022-10-25T17:53:33.342Z,11.50
2022-10-25T17:56:24.344Z,11.49
2022-10-25T17:59:08.259Z,11.49
2022-10-25T18:02:02.319Z,11.48
2022-10-25T18:05:19.078Z,11.50
2022-10-25T18:07:56.251Z,11.50
2022-10-25T18:10:43.227Z,11.48
2022-10-25T18:13:37.264Z,11.46
2022-10-25T18:16:33.247Z,11.44
2022-10-25T18:19:28.248Z,11.41
2022-10-25T18:22:22.230Z,11.40
2022-10-25T18:25:09.268Z,11.37
2022-10-25T18:27:49.639Z,11.36
2022-10-25T18:30:43.268Z,11.37
2022-10-25T18:33:31.266Z,11.36
2022-10-25T18:36:07.307Z,11.35
2022-10-25T18:39:01.259Z,11.36
2022-10-25T18:41:37.570Z,11.34
2022-10-25T18:44:24.284Z,11.35
2022-10-25T18:46:57.324Z,11.38
2022-10-25T18:49:44.242Z,11.38
2022-10-25T18:52:17.402Z,11.40
2022-10-25T18:55:04.253Z,11.38
2022-10-25T18:57:37.349Z,11.35
2022-10-25T19:00:24.265Z,11.34
2022-10-25T19:02:57.406Z,11.34
2022-10-25T19:05:46.265Z,11.34
2022-10-25T19:08:19.337Z,11.35
2022-10-25T19:11:13.276Z,11.35
2022-10-25T19:13:50.422Z,11.35
2022-10-25T19:16:38.295Z,11.31
2022-10-25T19:19:14.587Z,11.29
2022-10-25T19:22:01.265Z,11.28
2022-10-25T19:24:42.273Z,11.26
2022-10-25T19:27:29.278Z,11.22
2022-10-25T19:30:09.293Z,11.20
2022-10-25T19:33:03.286Z,11.16
2022-10-25T19:35:50.293Z,11.10
2022-10-25T19:38:23.356Z,11.06
2022-10-25T19:41:12.277Z,11.00
2022-10-25T19:43:45.398Z,10.95
2022-10-25T19:46:32.286Z,10.93
2022-10-25T19:49:05.371Z,10.91
2022-10-25T19:51:52.288Z,10.87
2022-10-25T19:54:32.268Z,10.85
2022-10-25T19:57:19.308Z,10.87
2022-10-25T19:59:59.286Z,10.85
2022-10-25T20:02:53.295Z,10.84
2022-10-25T20:05:40.298Z,10.85
2022-10-25T20:08:13.353Z,10.84
2022-10-25T20:11:00.450Z,10.84
2022-10-25T20:13:33.356Z,10.85
2022-10-25T20:16:21.304Z,10.86
2022-10-25T20:18:54.374Z,10.86
2022-10-25T20:21:43.330Z,10.88
2022-10-25T20:24:16.401Z,10.88
2022-10-25T20:27:03.288Z,10.86
2022-10-25T20:29:36.371Z,10.88
2022-10-25T20:32:23.301Z,10.90
2022-10-25T20:34:56.487Z,10.87
2022-10-25T20:37:43.305Z,10.84
2022-10-25T20:40:16.369Z,10.82
2022-10-25T20:43:04.306Z,10.80
2022-10-25T20:45:37.458Z,10.80
2022-10-25T20:48:24.311Z,10.76
2022-10-25T20:51:06.966Z,10.74
2022-10-25T20:53:55.300Z,10.74
2022-10-25T20:56:29.393Z,10.72
2022-10-25T20:59:16.308Z,10.69
2022-10-25T21:01:49.502Z,10.67
2022-10-25T21:04:42.607Z,10.64
2022-10-25T21:07:26.711Z,10.62
2022-10-25T21:10:13.312Z,10.57
2022-10-25T21:12:46.376Z,10.54
2022-10-25T21:15:33.326Z,10.52
2022-10-25T21:18:06.408Z,10.49
2022-10-25T21:20:55.337Z,10.44
2022-10-25T21:23:35.334Z,10.40
2022-10-25T21:26:29.327Z,10.35
2022-10-25T21:29:16.339Z,10.34
2022-10-25T21:31:56.323Z,10.33
2022-10-25T21:34:43.338Z,10.32
2022-10-25T21:37:16.528Z,10.31
2022-10-25T21:40:03.334Z,10.31
2022-10-25T21:42:49.346Z,10.29
2022-10-25T21:45:36.333Z,10.28
2022-10-25T21:48:09.422Z,10.27
2022-10-25T21:51:01.347Z,10.24
2022-10-25T21:53:41.414Z,10.21
2022-10-25T21:56:36.331Z,10.18
2022-10-25T21:59:23.364Z,10.12
2022-10-25T22:02:03.547Z,10.10
2022-10-25T22:04:57.342Z,10.06
2022-10-25T22:07:44.355Z,10.03
2022-10-25T22:10:17.413Z,10.03
2022-10-25T22:13:04.366Z,10.03
2022-10-25T22:15:37.426Z,9.99
2022-10-25T22:18:24.357Z,9.96
2022-10-25T22:21:05.450Z,9.93
2022-10-25T22:23:52.350Z,9.91
2022-10-25T22:26:27.498Z,9.87
2022-10-25T22:29:17.363Z,9.85
2022-10-25T22:31:50.445Z,9.81
2022-10-25T22:34:37.370Z,9.76
2022-10-25T22:37:17.361Z,9.75
2022-10-25T22:40:04.376Z,9.73
2022-10-25T22:42:44.375Z,9.73
2022-10-25T22:45:38.391Z,9.70
2022-10-25T22:48:25.375Z,9.68
2022-10-25T22:51:00.439Z,9.68
2022-10-25T22:53:48.378Z,9.65
2022-10-25T22:56:29.501Z,9.58
2022-10-25T22:59:18.368Z,9.54
2022-10-25T23:01:51.441Z,9.51
2022-10-25T23:04:38.390Z,9.47
2022-10-25T23:07:11.446Z,9.43
2022-10-25T23:09:58.354Z,9.38
2022-10-25T23:12:38.387Z,9.40
2022-10-25T23:15:32.383Z,9.35
2022-10-25T23:18:19.390Z,9.33
2022-10-25T23:20:56.533Z,9.30
2022-10-25T23:23:46.399Z,9.27
2022-10-25T23:26:32.476Z,9.23
2022-10-25T23:29:19.382Z,9.20
2022-10-25T23:31:52.482Z,9.18
2022-10-25T23:34:39.390Z,9.12
2022-10-25T23:37:12.597Z,9.06
2022-10-25T23:39:59.394Z,9.02
2022-10-25T23:42:32.532Z,8.95
2022-10-25T23:45:26.393Z,8.93
2022-10-25T23:48:13.389Z,8.89
2022-10-25T23:50:53.464Z,8.86
2022-10-25T23:53:48.398Z,8.83
2022-10-25T23:56:35.419Z,8.80
2022-10-25T23:59:15.453Z,8.76
